Nassau, Delaware
Current Conditions -  °F | °C
As of 6:13 PM on Wednesday 22 Oct 2014 (Local Time) from KGED Reporting Station
Light Rain Light Rain  
Wind Chill: 55°   Ceiling: 1400
Heat Index: 55°   Visibility: 10mi
Dew Point: 51°   Wind: 12mph
Humidity: 86%   Direction: 350°N
Pressure: 29.81"   Gusts: NA
Location:  38.75°N, 75.19°W
Report Text: KGED 222213Z AUTO 35010KT 10SM -RA BKN014 OVC019 13/11 A2981 RMK AO2 P0000 T01280106
Loading
Personal Weather Stations






























Interactive Weather Map
Tropical Storm Tracking
New forecast layout! Learn more

10-Day Weather Forecast

Advertisements
Track Severe Weather on mobile